sensor_id;sensor_type;location;lat;lon;timestamp;pressure;altitude;pressure_sealevel;temperature;humidity
85623;BME280;76049;43.076;25.632;2024-03-22T00:04:48;99784.82;;;7.79;55.04
85623;BME280;76049;43.076;25.632;2024-03-22T00:09:55;99788.94;;;7.67;55.22
85623;BME280;76049;43.076;25.632;2024-03-22T00:15:02;99782.36;;;7.63;55.60
85623;BME280;76049;43.076;25.632;2024-03-22T00:20:11;99780.27;;;7.60;56.31
85623;BME280;76049;43.076;25.632;2024-03-22T00:25:18;99779.89;;;7.49;56.75
85623;BME280;76049;43.076;25.632;2024-03-22T00:30:25;99781.89;;;7.43;56.89
85623;BME280;76049;43.076;25.632;2024-03-22T00:35:33;99784.55;;;7.40;57.04
85623;BME280;76049;43.076;25.632;2024-03-22T00:40:40;99785.14;;;7.42;56.68
85623;BME280;76049;43.076;25.632;2024-03-22T00:45:47;99791.33;;;7.42;56.90
85623;BME280;76049;43.076;25.632;2024-03-22T00:50:55;99789.84;;;7.38;59.53
85623;BME280;76049;43.076;25.632;2024-03-22T00:56:02;99797.16;;;8.74;68.42
85623;BME280;76049;43.076;25.632;2024-03-22T01:01:10;99797.52;;;8.98;56.34
85623;BME280;76049;43.076;25.632;2024-03-22T01:06:17;99798.98;;;8.46;54.64
85623;BME280;76049;43.076;25.632;2024-03-22T01:11:27;99798.52;;;7.90;55.11
85623;BME280;76049;43.076;25.632;2024-03-22T01:16:34;99796.77;;;7.48;55.72
85623;BME280;76049;43.076;25.632;2024-03-22T01:21:43;99797.40;;;7.22;56.24
85623;BME280;76049;43.076;25.632;2024-03-22T01:26:50;99792.59;;;6.99;56.29
85623;BME280;76049;43.076;25.632;2024-03-22T01:31:58;99786.84;;;6.73;56.83
85623;BME280;76049;43.076;25.632;2024-03-22T01:37:05;99791.52;;;6.51;57.58
85623;BME280;76049;43.076;25.632;2024-03-22T01:42:13;99793.23;;;6.41;57.67
85623;BME280;76049;43.076;25.632;2024-03-22T01:47:21;99795.98;;;6.25;58.18
85623;BME280;76049;43.076;25.632;2024-03-22T01:52:28;99791.80;;;6.02;58.44
85623;BME280;76049;43.076;25.632;2024-03-22T01:57:43;99791.58;;;5.79;58.83
85623;BME280;76049;43.076;25.632;2024-03-22T02:02:51;99792.59;;;5.70;58.99
85623;BME280;76049;43.076;25.632;2024-03-22T02:07:58;99795.00;;;5.62;59.29
85623;BME280;76049;43.076;25.632;2024-03-22T02:13:06;99800.98;;;5.55;59.42
85623;BME280;76049;43.076;25.632;2024-03-22T02:18:13;99804.93;;;5.45;59.42
85623;BME280;76049;43.076;25.632;2024-03-22T02:23:28;99800.66;;;5.35;59.38
85623;BME280;76049;43.076;25.632;2024-03-22T02:28:36;99800.20;;;5.32;59.85
85623;BME280;76049;43.076;25.632;2024-03-22T02:33:44;99804.48;;;5.28;60.15
85623;BME280;76049;43.076;25.632;2024-03-22T02:38:51;99805.38;;;5.27;59.79
85623;BME280;76049;43.076;25.632;2024-03-22T02:43:58;99811.25;;;5.23;59.51
85623;BME280;76049;43.076;25.632;2024-03-22T02:49:05;99811.92;;;5.17;59.04
85623;BME280;76049;43.076;25.632;2024-03-22T02:54:13;99814.92;;;4.99;58.92
85623;BME280;76049;43.076;25.632;2024-03-22T02:59:20;99818.48;;;4.80;59.15
85623;BME280;76049;43.076;25.632;2024-03-22T03:04:27;99817.42;;;4.74;59.35
85623;BME280;76049;43.076;25.632;2024-03-22T03:09:36;99819.26;;;4.67;59.65
85623;BME280;76049;43.076;25.632;2024-03-22T03:14:44;99826.26;;;4.65;59.79
85623;BME280;76049;43.076;25.632;2024-03-22T03:19:51;99831.79;;;4.67;59.62
85623;BME280;76049;43.076;25.632;2024-03-22T03:24:58;99839.10;;;4.71;59.52
85623;BME280;76049;43.076;25.632;2024-03-22T03:30:08;99841.46;;;4.66;59.78
85623;BME280;76049;43.076;25.632;2024-03-22T03:35:15;99841.21;;;4.62;60.10
85623;BME280;76049;43.076;25.632;2024-03-22T03:40:22;99842.16;;;4.67;60.20
85623;BME280;76049;43.076;25.632;2024-03-22T03:45:31;99850.20;;;4.67;60.17
85623;BME280;76049;43.076;25.632;2024-03-22T03:50:38;99849.53;;;4.65;60.24
85623;BME280;76049;43.076;25.632;2024-03-22T03:55:45;99849.48;;;4.65;60.28
85623;BME280;76049;43.076;25.632;2024-03-22T04:00:52;99854.43;;;4.59;60.23
85623;BME280;76049;43.076;25.632;2024-03-22T04:06:00;99859.94;;;4.44;60.41
85623;BME280;76049;43.076;25.632;2024-03-22T04:11:08;99862.77;;;4.32;60.87
85623;BME280;76049;43.076;25.632;2024-03-22T04:16:14;99865.39;;;4.21;61.16
85623;BME280;76049;43.076;25.632;2024-03-22T04:21:21;99873.67;;;4.15;61.12
85623;BME280;76049;43.076;25.632;2024-03-22T04:26:29;99874.46;;;3.98;61.30
85623;BME280;76049;43.076;25.632;2024-03-22T04:31:37;99879.36;;;4.07;61.47
85623;BME280;76049;43.076;25.632;2024-03-22T04:36:44;99888.69;;;4.22;61.36
85623;BME280;76049;43.076;25.632;2024-03-22T04:41:52;99891.16;;;4.18;61.04
85623;BME280;76049;43.076;25.632;2024-03-22T04:47:00;99896.08;;;4.09;61.57
85623;BME280;76049;43.076;25.632;2024-03-22T04:52:08;99896.62;;;4.29;61.43
85623;BME280;76049;43.076;25.632;2024-03-22T04:57:15;99899.90;;;4.58;60.84
85623;BME280;76049;43.076;25.632;2024-03-22T05:02:23;99902.89;;;4.92;60.10
85623;BME280;76049;43.076;25.632;2024-03-22T05:07:30;99905.93;;;5.33;59.37
85623;BME280;76049;43.076;25.632;2024-03-22T05:12:38;99911.57;;;5.77;57.98
85623;BME280;76049;43.076;25.632;2024-03-22T05:17:45;99913.40;;;6.19;57.18
85623;BME280;76049;43.076;25.632;2024-03-22T05:22:52;99919.13;;;6.86;56.25
85623;BME280;76049;43.076;25.632;2024-03-22T05:28:00;99917.90;;;7.42;54.70
85623;BME280;76049;43.076;25.632;2024-03-22T05:33:07;99920.04;;;7.91;53.34
85623;BME280;76049;43.076;25.632;2024-03-22T05:38:14;99924.04;;;8.40;52.41
85623;BME280;76049;43.076;25.632;2024-03-22T05:43:21;99931.08;;;9.01;51.32
85623;BME280;76049;43.076;25.632;2024-03-22T05:48:29;99933.27;;;9.58;49.84
85623;BME280;76049;43.076;25.632;2024-03-22T05:53:36;99936.69;;;9.92;48.82
85623;BME280;76049;43.076;25.632;2024-03-22T05:58:43;99942.32;;;10.35;48.06
85623;BME280;76049;43.076;25.632;2024-03-22T06:03:51;99945.12;;;10.88;47.02
85623;BME280;76049;43.076;25.632;2024-03-22T06:08:59;99946.91;;;11.47;47.18
85623;BME280;76049;43.076;25.632;2024-03-22T06:14:09;99950.66;;;12.27;45.88
85623;BME280;76049;43.076;25.632;2024-03-22T06:19:16;99959.52;;;13.03;44.22
85623;BME280;76049;43.076;25.632;2024-03-22T06:24:25;99959.13;;;13.51;42.64
85623;BME280;76049;43.076;25.632;2024-03-22T06:29:32;99963.33;;;13.82;41.95
85623;BME280;76049;43.076;25.632;2024-03-22T06:34:39;99963.10;;;14.25;40.83
85623;BME280;76049;43.076;25.632;2024-03-22T06:39:47;99973.39;;;14.55;40.37
85623;BME280;76049;43.076;25.632;2024-03-22T06:44:54;99974.30;;;15.21;38.61
85623;BME280;76049;43.076;25.632;2024-03-22T06:50:01;99974.68;;;15.67;37.01
85623;BME280;76049;43.076;25.632;2024-03-22T06:55:10;99978.05;;;15.57;36.16
85623;BME280;76049;43.076;25.632;2024-03-22T07:00:19;99978.94;;;15.53;35.92
85623;BME280;76049;43.076;25.632;2024-03-22T07:05:26;99984.30;;;15.57;34.79
85623;BME280;76049;43.076;25.632;2024-03-22T07:10:33;99983.29;;;16.26;33.98
85623;BME280;76049;43.076;25.632;2024-03-22T07:15:43;99986.48;;;16.97;32.17
85623;BME280;76049;43.076;25.632;2024-03-22T07:20:50;99990.02;;;17.24;31.23
85623;BME280;76049;43.076;25.632;2024-03-22T07:25:58;99990.64;;;17.02;31.04
85623;BME280;76049;43.076;25.632;2024-03-22T07:31:05;99994.72;;;17.00;30.92
85623;BME280;76049;43.076;25.632;2024-03-22T07:36:15;99989.04;;;16.71;30.55
85623;BME280;76049;43.076;25.632;2024-03-22T07:41:22;99993.23;;;16.62;30.25
85623;BME280;76049;43.076;25.632;2024-03-22T07:46:29;99992.20;;;16.72;29.76
85623;BME280;76049;43.076;25.632;2024-03-22T07:51:39;99992.70;;;16.68;29.35
85623;BME280;76049;43.076;25.632;2024-03-22T07:59:32;99989.48;;;16.72;28.17
85623;BME280;76049;43.076;25.632;2024-03-22T08:04:39;99990.30;;;16.68;27.72
85623;BME280;76049;43.076;25.632;2024-03-22T08:09:47;99990.69;;;16.60;27.61
85623;BME280;76049;43.076;25.632;2024-03-22T08:14:54;99985.05;;;16.38;28.01
85623;BME280;76049;43.076;25.632;2024-03-22T08:20:01;99987.66;;;16.14;28.32
85623;BME280;76049;43.076;25.632;2024-03-22T08:25:09;99987.94;;;16.11;28.25
85623;BME280;76049;43.076;25.632;2024-03-22T08:30:17;99983.98;;;16.18;28.13
85623;BME280;76049;43.076;25.632;2024-03-22T08:35:24;99978.11;;;16.14;27.98
85623;BME280;76049;43.076;25.632;2024-03-22T08:40:31;99981.48;;;16.15;27.86
85623;BME280;76049;43.076;25.632;2024-03-22T08:45:39;99982.58;;;16.09;27.60
85623;BME280;76049;43.076;25.632;2024-03-22T08:50:46;99978.84;;;16.04;27.61
85623;BME280;76049;43.076;25.632;2024-03-22T08:55:53;99979.61;;;16.01;27.69
85623;BME280;76049;43.076;25.632;2024-03-22T09:01:00;99977.81;;;16.01;27.39
85623;BME280;76049;43.076;25.632;2024-03-22T09:06:08;99978.95;;;16.00;26.68
85623;BME280;76049;43.076;25.632;2024-03-22T09:11:15;99975.50;;;15.80;26.00
85623;BME280;76049;43.076;25.632;2024-03-22T09:16:24;99970.79;;;15.75;26.13
85623;BME280;76049;43.076;25.632;2024-03-22T09:21:31;99964.88;;;15.66;26.01
85623;BME280;76049;43.076;25.632;2024-03-22T09:26:38;99961.52;;;15.46;26.57
85623;BME280;76049;43.076;25.632;2024-03-22T09:31:45;99962.55;;;15.23;27.46
85623;BME280;76049;43.076;25.632;2024-03-22T09:36:52;99960.69;;;15.05;28.35
85623;BME280;76049;43.076;25.632;2024-03-22T09:42:02;99961.35;;;14.89;28.75
85623;BME280;76049;43.076;25.632;2024-03-22T09:47:12;99955.87;;;14.70;29.47
85623;BME280;76049;43.076;25.632;2024-03-22T09:52:21;99953.90;;;14.40;29.98
85623;BME280;76049;43.076;25.632;2024-03-22T09:57:28;99952.19;;;14.15;30.37
85623;BME280;76049;43.076;25.632;2024-03-22T10:02:37;99949.63;;;13.96;30.65
85623;BME280;76049;43.076;25.632;2024-03-22T10:07:44;99942.60;;;13.78;31.11
85623;BME280;76049;43.076;25.632;2024-03-22T10:12:53;99937.47;;;13.65;31.87
85623;BME280;76049;43.076;25.632;2024-03-22T10:18:02;99929.88;;;13.68;32.15
85623;BME280;76049;43.076;25.632;2024-03-22T10:23:10;99926.48;;;13.70;32.33
85623;BME280;76049;43.076;25.632;2024-03-22T10:28:17;99923.25;;;13.65;32.59
85623;BME280;76049;43.076;25.632;2024-03-22T10:33:24;99922.22;;;13.63;32.59
85623;BME280;76049;43.076;25.632;2024-03-22T10:38:38;99913.37;;;13.57;32.72
85623;BME280;76049;43.076;25.632;2024-03-22T10:43:45;99901.17;;;13.52;33.16
85623;BME280;76049;43.076;25.632;2024-03-22T10:48:52;99900.19;;;13.50;33.06
85623;BME280;76049;43.076;25.632;2024-03-22T10:54:01;99895.80;;;13.42;33.21
85623;BME280;76049;43.076;25.632;2024-03-22T10:59:10;99887.83;;;13.38;33.32
85623;BME280;76049;43.076;25.632;2024-03-22T11:04:21;99883.60;;;13.43;33.44
85623;BME280;76049;43.076;25.632;2024-03-22T11:09:29;99874.83;;;13.47;33.15
85623;BME280;76049;43.076;25.632;2024-03-22T11:14:36;99874.68;;;13.49;32.95
85623;BME280;76049;43.076;25.632;2024-03-22T11:19:43;99860.51;;;13.54;32.82
85623;BME280;76049;43.076;25.632;2024-03-22T11:24:51;99854.05;;;13.58;33.14
85623;BME280;76049;43.076;25.632;2024-03-22T11:29:59;99849.19;;;13.59;33.52
85623;BME280;76049;43.076;25.632;2024-03-22T11:35:07;99843.54;;;13.61;33.64
85623;BME280;76049;43.076;25.632;2024-03-22T11:40:14;99833.58;;;13.68;33.79
85623;BME280;76049;43.076;25.632;2024-03-22T11:45:22;99831.36;;;13.68;33.59
85623;BME280;76049;43.076;25.632;2024-03-22T11:50:29;99825.73;;;13.67;33.44
85623;BME280;76049;43.076;25.632;2024-03-22T11:55:39;99819.96;;;13.69;33.39
85623;BME280;76049;43.076;25.632;2024-03-22T12:00:47;99810.52;;;13.73;33.43
85623;BME280;76049;43.076;25.632;2024-03-22T12:05:57;99805.61;;;13.75;33.65
85623;BME280;76049;43.076;25.632;2024-03-22T12:11:04;99802.52;;;13.80;33.73
85623;BME280;76049;43.076;25.632;2024-03-22T12:16:13;99797.92;;;13.82;33.71
85623;BME280;76049;43.076;25.632;2024-03-22T12:21:20;99798.07;;;13.90;33.76
85623;BME280;76049;43.076;25.632;2024-03-22T12:26:28;99789.72;;;13.97;33.61
85623;BME280;76049;43.076;25.632;2024-03-22T12:31:35;99782.89;;;14.09;33.47
85623;BME280;76049;43.076;25.632;2024-03-22T12:36:46;99784.34;;;14.19;33.34
85623;BME280;76049;43.076;25.632;2024-03-22T12:41:53;99776.52;;;14.27;33.17
85623;BME280;76049;43.076;25.632;2024-03-22T12:47:00;99771.39;;;14.36;33.22
85623;BME280;76049;43.076;25.632;2024-03-22T12:52:08;99770.96;;;14.39;33.26
85623;BME280;76049;43.076;25.632;2024-03-22T12:57:16;99766.15;;;14.38;33.23
85623;BME280;76049;43.076;25.632;2024-03-22T13:02:24;99760.30;;;14.38;33.28
85623;BME280;76049;43.076;25.632;2024-03-22T13:07:33;99756.40;;;14.33;33.35
85623;BME280;76049;43.076;25.632;2024-03-22T13:12:40;99754.44;;;14.27;33.33
85623;BME280;76049;43.076;25.632;2024-03-22T13:17:48;99744.64;;;14.19;33.44
85623;BME280;76049;43.076;25.632;2024-03-22T13:22:56;99744.25;;;14.14;33.71
85623;BME280;76049;43.076;25.632;2024-03-22T13:28:09;99732.20;;;14.17;33.59
85623;BME280;76049;43.076;25.632;2024-03-22T13:33:17;99725.55;;;14.18;33.53
85623;BME280;76049;43.076;25.632;2024-03-22T13:38:24;99722.52;;;14.17;33.43
85623;BME280;76049;43.076;25.632;2024-03-22T13:43:34;99712.08;;;14.21;33.46
85623;BME280;76049;43.076;25.632;2024-03-22T13:48:43;99701.92;;;14.22;33.26
85623;BME280;76049;43.076;25.632;2024-03-22T13:53:50;99701.43;;;14.22;32.96
85623;BME280;76049;43.076;25.632;2024-03-22T13:58:58;99693.37;;;14.23;32.98
85623;BME280;76049;43.076;25.632;2024-03-22T14:04:06;99690.02;;;14.24;33.25
85623;BME280;76049;43.076;25.632;2024-03-22T14:09:15;99685.21;;;14.30;33.15
85623;BME280;76049;43.076;25.632;2024-03-22T14:14:22;99684.63;;;14.31;32.96
85623;BME280;76049;43.076;25.632;2024-03-22T14:19:31;99680.95;;;14.32;32.88
85623;BME280;76049;43.076;25.632;2024-03-22T14:24:38;99675.59;;;14.31;32.95
85623;BME280;76049;43.076;25.632;2024-03-22T14:29:47;99671.41;;;14.23;33.51
85623;BME280;76049;43.076;25.632;2024-03-22T14:34:54;99673.69;;;14.25;33.83
85623;BME280;76049;43.076;25.632;2024-03-22T14:40:01;99666.82;;;14.25;33.95
85623;BME280;76049;43.076;25.632;2024-03-22T14:45:11;99666.71;;;14.18;34.07
85623;BME280;76049;43.076;25.632;2024-03-22T14:50:18;99664.05;;;14.13;34.15
85623;BME280;76049;43.076;25.632;2024-03-22T14:55:25;99662.37;;;14.12;34.02
85623;BME280;76049;43.076;25.632;2024-03-22T15:00:33;99661.29;;;14.07;34.27
85623;BME280;76049;43.076;25.632;2024-03-22T15:05:40;99665.02;;;14.02;34.49
85623;BME280;76049;43.076;25.632;2024-03-22T15:10:48;99664.89;;;13.97;34.45
85623;BME280;76049;43.076;25.632;2024-03-22T15:15:56;99664.50;;;13.91;34.65
85623;BME280;76049;43.076;25.632;2024-03-22T15:21:05;99662.50;;;13.91;34.76
85623;BME280;76049;43.076;25.632;2024-03-22T15:26:12;99659.58;;;13.90;34.83
85623;BME280;76049;43.076;25.632;2024-03-22T15:31:19;99658.23;;;13.91;34.80
85623;BME280;76049;43.076;25.632;2024-03-22T15:36:30;99656.98;;;13.90;34.51
85623;BME280;76049;43.076;25.632;2024-03-22T15:41:38;99655.45;;;13.85;34.66
85623;BME280;76049;43.076;25.632;2024-03-22T15:46:45;99656.90;;;13.77;34.82
85623;BME280;76049;43.076;25.632;2024-03-22T15:51:52;99654.63;;;13.72;35.19
85623;BME280;76049;43.076;25.632;2024-03-22T15:56:59;99655.96;;;13.67;35.53
85623;BME280;76049;43.076;25.632;2024-03-22T16:02:07;99654.75;;;13.58;35.43
85623;BME280;76049;43.076;25.632;2024-03-22T16:07:18;99649.13;;;13.46;35.47
85623;BME280;76049;43.076;25.632;2024-03-22T16:12:25;99650.27;;;13.34;35.97
85623;BME280;76049;43.076;25.632;2024-03-22T16:17:33;99649.69;;;13.25;36.00
85623;BME280;76049;43.076;25.632;2024-03-22T16:22:40;99648.00;;;13.13;36.24
85623;BME280;76049;43.076;25.632;2024-03-22T16:27:48;99652.08;;;13.01;36.96
85623;BME280;76049;43.076;25.632;2024-03-22T16:32:57;99645.90;;;12.87;37.32
85623;BME280;76049;43.076;25.632;2024-03-22T16:38:07;99652.72;;;12.73;37.46
85623;BME280;76049;43.076;25.632;2024-03-22T16:43:15;99656.30;;;12.61;37.80
85623;BME280;76049;43.076;25.632;2024-03-22T16:48:23;99657.23;;;12.49;38.27
85623;BME280;76049;43.076;25.632;2024-03-22T16:53:31;99654.45;;;12.39;38.48
85623;BME280;76049;43.076;25.632;2024-03-22T16:58:39;99663.04;;;12.27;38.72
85623;BME280;76049;43.076;25.632;2024-03-22T17:03:46;99666.38;;;12.15;39.02
85623;BME280;76049;43.076;25.632;2024-03-22T17:08:53;99667.86;;;12.01;39.41
85623;BME280;76049;43.076;25.632;2024-03-22T17:14:00;99668.81;;;11.87;39.80
85623;BME280;76049;43.076;25.632;2024-03-22T17:19:08;99676.27;;;11.77;40.06
85623;BME280;76049;43.076;25.632;2024-03-22T17:24:14;99686.59;;;11.58;40.60
85623;BME280;76049;43.076;25.632;2024-03-22T17:29:22;99688.27;;;11.28;41.10
85623;BME280;76049;43.076;25.632;2024-03-22T17:34:29;99690.39;;;11.02;41.73
85623;BME280;76049;43.076;25.632;2024-03-22T17:39:36;99690.17;;;10.77;42.45
85623;BME280;76049;43.076;25.632;2024-03-22T17:44:44;99693.94;;;10.52;42.61
85623;BME280;76049;43.076;25.632;2024-03-22T17:49:51;99691.24;;;10.34;42.96
85623;BME280;76049;43.076;25.632;2024-03-22T17:55:01;99700.59;;;10.25;43.42
85623;BME280;76049;43.076;25.632;2024-03-22T18:00:10;99703.39;;;10.20;43.67
85623;BME280;76049;43.076;25.632;2024-03-22T18:05:20;99702.54;;;10.09;44.01
85623;BME280;76049;43.076;25.632;2024-03-22T18:10:27;99708.92;;;9.97;44.08
85623;BME280;76049;43.076;25.632;2024-03-22T18:15:34;99708.25;;;9.84;44.43
85623;BME280;76049;43.076;25.632;2024-03-22T18:20:41;99709.30;;;9.69;45.43
85623;BME280;76049;43.076;25.632;2024-03-22T18:25:49;99713.15;;;9.52;46.11
85623;BME280;76049;43.076;25.632;2024-03-22T18:30:56;99711.70;;;9.37;46.04
85623;BME280;76049;43.076;25.632;2024-03-22T18:36:05;99714.39;;;9.22;46.28
85623;BME280;76049;43.076;25.632;2024-03-22T18:41:12;99708.19;;;9.09;46.61
85623;BME280;76049;43.076;25.632;2024-03-22T18:46:20;99703.27;;;8.96;46.98
85623;BME280;76049;43.076;25.632;2024-03-22T18:51:27;99702.65;;;8.89;47.01
85623;BME280;76049;43.076;25.632;2024-03-22T18:56:35;99708.27;;;8.81;47.18
85623;BME280;76049;43.076;25.632;2024-03-22T19:01:42;99709.45;;;8.72;47.73
85623;BME280;76049;43.076;25.632;2024-03-22T19:06:50;99707.39;;;8.64;47.90
85623;BME280;76049;43.076;25.632;2024-03-22T19:11:57;99710.32;;;8.57;48.50
85623;BME280;76049;43.076;25.632;2024-03-22T19:17:05;99713.21;;;8.49;48.95
85623;BME280;76049;43.076;25.632;2024-03-22T19:22:15;99712.52;;;8.35;49.37
85623;BME280;76049;43.076;25.632;2024-03-22T19:27:23;99712.06;;;8.25;49.57
85623;BME280;76049;43.076;25.632;2024-03-22T19:32:30;99716.55;;;8.17;49.48
85623;BME280;76049;43.076;25.632;2024-03-22T19:37:37;99719.70;;;8.07;49.88
85623;BME280;76049;43.076;25.632;2024-03-22T19:42:46;99709.99;;;7.91;50.19
85623;BME280;76049;43.076;25.632;2024-03-22T19:47:55;99713.89;;;7.67;50.58
85623;BME280;76049;43.076;25.632;2024-03-22T19:53:03;99714.89;;;7.53;50.90
85623;BME280;76049;43.076;25.632;2024-03-22T19:58:11;99715.06;;;7.50;50.74
85623;BME280;76049;43.076;25.632;2024-03-22T20:03:18;99715.95;;;7.48;51.01
85623;BME280;76049;43.076;25.632;2024-03-22T20:14:43;99707.91;;;7.34;51.55
85623;BME280;76049;43.076;25.632;2024-03-22T20:19:51;99709.46;;;7.21;51.65
85623;BME280;76049;43.076;25.632;2024-03-22T20:24:59;99708.98;;;7.16;51.94
85623;BME280;76049;43.076;25.632;2024-03-22T20:30:08;99712.61;;;7.16;52.09
85623;BME280;76049;43.076;25.632;2024-03-22T20:35:15;99712.39;;;7.13;52.40
